Napier, New Zealand
Current Conditions -  °F | °C
As of 9:30 AM on Saturday 29 Nov 2014 (Local Time) from NZWN Reporting Station
Clear Clear  
Wind Chill: 57°   Ceiling: Unl
Heat Index: 57°   Visibility: 6mi
Dew Point: 39°   Wind: 10mph
Humidity: 51%   Direction: 310°NW
Pressure: 29.71"   Gusts: NA
Location:  39.49°S, 176.92°E
Report Text: NZWN 282030Z AUTO 31009KT 250V350 9999 NCD 14/04 Q1006 BECMG34018G30KT
Loading
Personal Weather Stations






























Interactive Weather Map New forecast layout! Learn more

10-Day Weather Forecast

Advertisements
Track Severe Weather on mobile